sensor_id;sensor_type;location;lat;lon;timestamp;pressure;altitude;pressure_sealevel;temperature;humidity
61324;BME280;47203;48.428;11.974;2024-01-30T00:01:32;98218.06;;;6.43;39.66
61324;BME280;47203;48.428;11.974;2024-01-30T00:03:35;98213.03;;;6.41;39.53
61324;BME280;47203;48.428;11.974;2024-01-30T00:05:40;98204.38;;;6.41;39.48
61324;BME280;47203;48.428;11.974;2024-01-30T00:07:44;98205.19;;;6.41;39.58
61324;BME280;47203;48.428;11.974;2024-01-30T00:09:47;98201.16;;;6.39;39.82
61324;BME280;47203;48.428;11.974;2024-01-30T00:11:50;98203.78;;;6.39;39.69
61324;BME280;47203;48.428;11.974;2024-01-30T00:13:56;98204.56;;;6.39;39.96
61324;BME280;47203;48.428;11.974;2024-01-30T00:16:00;98201.16;;;6.39;39.76
61324;BME280;47203;48.428;11.974;2024-01-30T00:18:04;98198.53;;;6.39;39.87
61324;BME280;47203;48.428;11.974;2024-01-30T00:20:09;98198.53;;;6.39;39.84
61324;BME280;47203;48.428;11.974;2024-01-30T00:22:13;98196.72;;;6.39;39.70
61324;BME280;47203;48.428;11.974;2024-01-30T00:24:17;98195.91;;;6.39;39.82
61324;BME280;47203;48.428;11.974;2024-01-30T00:26:20;98209.00;;;6.39;39.70
61324;BME280;47203;48.428;11.974;2024-01-30T00:28:24;98212.41;;;6.39;39.59
61324;BME280;47203;48.428;11.974;2024-01-30T00:30:29;98207.38;;;6.38;39.67
61324;BME280;47203;48.428;11.974;2024-01-30T00:32:32;98209.00;;;6.39;39.76
61324;BME280;47203;48.428;11.974;2024-01-30T00:34:35;98212.81;;;6.36;39.49
61324;BME280;47203;48.428;11.974;2024-01-30T00:36:39;98214.84;;;6.34;39.62
61324;BME280;47203;48.428;11.974;2024-01-30T00:38:42;98203.75;;;6.32;39.64
61324;BME280;47203;48.428;11.974;2024-01-30T00:40:47;98214.41;;;6.31;39.54
61324;BME280;47203;48.428;11.974;2024-01-30T00:42:49;98210.22;;;6.29;39.66
61324;BME280;47203;48.428;11.974;2024-01-30T00:44:53;98207.78;;;6.28;39.76
61324;BME280;47203;48.428;11.974;2024-01-30T00:46:58;98208.16;;;6.25;39.81
61324;BME280;47203;48.428;11.974;2024-01-30T00:49:01;98208.56;;;6.22;39.90
61324;BME280;47203;48.428;11.974;2024-01-30T00:51:05;98208.78;;;6.20;39.81
61324;BME280;47203;48.428;11.974;2024-01-30T00:53:08;98201.94;;;6.19;39.95
61324;BME280;47203;48.428;11.974;2024-01-30T00:55:12;98211.78;;;6.17;39.74
61324;BME280;47203;48.428;11.974;2024-01-30T00:57:16;98208.97;;;6.19;39.75
61324;BME280;47203;48.428;11.974;2024-01-30T00:59:19;98208.19;;;6.18;39.75
61324;BME280;47203;48.428;11.974;2024-01-30T01:01:23;98201.72;;;6.14;39.84
61324;BME280;47203;48.428;11.974;2024-01-30T01:03:28;98212.97;;;6.15;39.87
61324;BME280;47203;48.428;11.974;2024-01-30T01:05:32;98217.41;;;6.14;39.79
61324;BME280;47203;48.428;11.974;2024-01-30T01:07:35;98214.22;;;6.12;39.80
61324;BME280;47203;48.428;11.974;2024-01-30T01:09:39;98215.78;;;6.13;39.83
61324;BME280;47203;48.428;11.974;2024-01-30T01:11:43;98218.41;;;6.13;39.77
61324;BME280;47203;48.428;11.974;2024-01-30T01:13:46;98217.81;;;6.11;39.85
61324;BME280;47203;48.428;11.974;2024-01-30T01:15:49;98214.78;;;6.07;39.84
61324;BME280;47203;48.428;11.974;2024-01-30T01:17:53;98215.81;;;6.06;39.96
61324;BME280;47203;48.428;11.974;2024-01-30T01:19:58;98217.78;;;6.04;40.00
61324;BME280;47203;48.428;11.974;2024-01-30T01:22:02;98222.22;;;6.04;39.98
61324;BME280;47203;48.428;11.974;2024-01-30T01:24:06;98223.22;;;6.03;39.97
61324;BME280;47203;48.428;11.974;2024-01-30T01:26:09;98220.59;;;6.03;39.98
61324;BME280;47203;48.428;11.974;2024-01-30T01:28:13;98224.25;;;6.02;39.98
61324;BME280;47203;48.428;11.974;2024-01-30T01:30:17;98222.81;;;5.99;40.19
61324;BME280;47203;48.428;11.974;2024-01-30T01:32:23;98224.63;;;5.99;40.06
61324;BME280;47203;48.428;11.974;2024-01-30T01:34:27;98222.19;;;5.97;40.13
61324;BME280;47203;48.428;11.974;2024-01-30T01:36:33;98224.97;;;5.95;40.14
61324;BME280;47203;48.428;11.974;2024-01-30T01:38:37;98219.75;;;5.95;40.30
61324;BME280;47203;48.428;11.974;2024-01-30T01:40:43;98219.16;;;5.93;40.24
61324;BME280;47203;48.428;11.974;2024-01-30T01:42:46;98211.50;;;5.92;40.15
61324;BME280;47203;48.428;11.974;2024-01-30T01:44:48;98213.53;;;5.90;40.11
61324;BME280;47203;48.428;11.974;2024-01-30T01:46:53;98209.88;;;5.91;40.17
61324;BME280;47203;48.428;11.974;2024-01-30T01:48:57;98206.69;;;5.89;40.24
61324;BME280;47203;48.428;11.974;2024-01-30T01:51:02;98208.84;;;5.85;40.30
61324;BME280;47203;48.428;11.974;2024-01-30T01:53:08;98212.69;;;5.83;40.40
61324;BME280;47203;48.428;11.974;2024-01-30T01:55:15;98209.25;;;5.82;40.40
61324;BME280;47203;48.428;11.974;2024-01-30T01:57:20;98206.84;;;5.81;40.36
61324;BME280;47203;48.428;11.974;2024-01-30T01:59:25;98206.03;;;5.80;40.45
61324;BME280;47203;48.428;11.974;2024-01-30T02:01:29;98209.66;;;5.79;40.41
61324;BME280;47203;48.428;11.974;2024-01-30T02:03:34;98205.41;;;5.78;40.42
61324;BME280;47203;48.428;11.974;2024-01-30T02:05:41;98203.84;;;5.77;40.53
61324;BME280;47203;48.428;11.974;2024-01-30T02:07:45;98202.81;;;5.78;40.56
61324;BME280;47203;48.428;11.974;2024-01-30T02:09:49;98204.81;;;5.76;40.49
61324;BME280;47203;48.428;11.974;2024-01-30T02:11:52;98203.00;;;5.76;40.39
61324;BME280;47203;48.428;11.974;2024-01-30T02:13:56;98210.06;;;5.76;40.67
61324;BME280;47203;48.428;11.974;2024-01-30T02:15:59;98203.19;;;5.75;40.39
61324;BME280;47203;48.428;11.974;2024-01-30T02:18:01;98196.59;;;5.72;40.29
61324;BME280;47203;48.428;11.974;2024-01-30T02:20:07;98207.19;;;5.71;40.28
61324;BME280;47203;48.428;11.974;2024-01-30T02:22:13;98209.22;;;5.69;40.44
61324;BME280;47203;48.428;11.974;2024-01-30T02:24:17;98202.19;;;5.69;40.38
61324;BME280;47203;48.428;11.974;2024-01-30T02:26:20;98196.34;;;5.67;40.32
61324;BME280;47203;48.428;11.974;2024-01-30T02:28:24;98199.97;;;5.66;40.33
61324;BME280;47203;48.428;11.974;2024-01-30T02:30:28;98201.97;;;5.64;39.96
61324;BME280;47203;48.428;11.974;2024-01-30T02:32:31;98205.56;;;5.63;40.42
61324;BME280;47203;48.428;11.974;2024-01-30T02:34:35;98207.59;;;5.61;40.35
61324;BME280;47203;48.428;11.974;2024-01-30T02:36:38;98206.97;;;5.59;40.53
61324;BME280;47203;48.428;11.974;2024-01-30T02:38:46;98203.94;;;5.55;40.47
61324;BME280;47203;48.428;11.974;2024-01-30T02:40:50;98198.91;;;5.54;40.29
61324;BME280;47203;48.428;11.974;2024-01-30T02:42:53;98201.72;;;5.52;40.51
61324;BME280;47203;48.428;11.974;2024-01-30T02:44:58;98207.16;;;5.51;40.33
61324;BME280;47203;48.428;11.974;2024-01-30T02:47:01;98197.88;;;5.48;40.59
61324;BME280;47203;48.428;11.974;2024-01-30T02:49:05;98204.72;;;5.49;40.51
61324;BME280;47203;48.428;11.974;2024-01-30T02:51:08;98204.09;;;5.47;40.61
61324;BME280;47203;48.428;11.974;2024-01-30T02:53:11;98204.69;;;5.42;40.58
61324;BME280;47203;48.428;11.974;2024-01-30T02:55:16;98201.28;;;5.42;40.89
61324;BME280;47203;48.428;11.974;2024-01-30T02:57:21;98203.91;;;5.42;40.66
61324;BME280;47203;48.428;11.974;2024-01-30T02:59:24;98193.84;;;5.39;40.50
61324;BME280;47203;48.428;11.974;2024-01-30T03:01:28;98193.84;;;5.39;40.64
61324;BME280;47203;48.428;11.974;2024-01-30T03:03:31;98201.69;;;5.39;40.68
61324;BME280;47203;48.428;11.974;2024-01-30T03:05:36;98197.63;;;5.36;40.77
61324;BME280;47203;48.428;11.974;2024-01-30T03:07:39;98191.78;;;5.34;40.67
61324;BME280;47203;48.428;11.974;2024-01-30T03:09:44;98189.38;;;5.33;41.08
61324;BME280;47203;48.428;11.974;2024-01-30T03:11:49;98189.75;;;5.30;40.85
61324;BME280;47203;48.428;11.974;2024-01-30T03:13:53;98186.97;;;5.31;40.81
61324;BME280;47203;48.428;11.974;2024-01-30T03:15:55;98188.78;;;5.31;40.91
61324;BME280;47203;48.428;11.974;2024-01-30T03:17:59;98182.75;;;5.30;40.67
61324;BME280;47203;48.428;11.974;2024-01-30T03:20:03;98187.16;;;5.30;40.77
61324;BME280;47203;48.428;11.974;2024-01-30T03:22:08;98187.34;;;5.28;40.82
61324;BME280;47203;48.428;11.974;2024-01-30T03:24:12;98179.72;;;5.27;40.75
61324;BME280;47203;48.428;11.974;2024-01-30T03:26:15;98176.31;;;5.26;40.68
61324;BME280;47203;48.428;11.974;2024-01-30T03:28:20;98179.72;;;5.27;40.75
61324;BME280;47203;48.428;11.974;2024-01-30T03:30:23;98177.09;;;5.27;40.82
61324;BME280;47203;48.428;11.974;2024-01-30T03:32:27;98175.47;;;5.25;40.83
61324;BME280;47203;48.428;11.974;2024-01-30T03:34:32;98185.31;;;5.23;40.65
61324;BME280;47203;48.428;11.974;2024-01-30T03:36:35;98181.91;;;5.23;40.70
61324;BME280;47203;48.428;11.974;2024-01-30T03:38:38;98172.66;;;5.20;40.70
61324;BME280;47203;48.428;11.974;2024-01-30T03:40:42;98172.06;;;5.18;40.83
61324;BME280;47203;48.428;11.974;2024-01-30T03:42:45;98179.41;;;5.08;40.72
61324;BME280;47203;48.428;11.974;2024-01-30T03:44:50;98181.59;;;5.04;40.45
61324;BME280;47203;48.428;11.974;2024-01-30T03:46:55;98183.63;;;5.09;40.42
61324;BME280;47203;48.428;11.974;2024-01-30T03:49:00;98176.44;;;5.11;40.67
61324;BME280;47203;48.428;11.974;2024-01-30T03:51:04;98182.03;;;5.08;40.78
61324;BME280;47203;48.428;11.974;2024-01-30T03:53:08;98185.44;;;5.09;40.67
61324;BME280;47203;48.428;11.974;2024-01-30T03:55:11;98180.22;;;5.09;40.77
61324;BME280;47203;48.428;11.974;2024-01-30T03:57:15;98177.63;;;5.09;40.80
61324;BME280;47203;48.428;11.974;2024-01-30T03:59:19;98180.22;;;5.09;40.74
61324;BME280;47203;48.428;11.974;2024-01-30T04:01:27;98180.44;;;5.07;40.75
61324;BME280;47203;48.428;11.974;2024-01-30T04:03:30;98170.78;;;5.07;40.74
61324;BME280;47203;48.428;11.974;2024-01-30T04:05:34;98178.00;;;5.05;40.64
61324;BME280;47203;48.428;11.974;2024-01-30T04:07:37;98174.56;;;5.05;40.77
61324;BME280;47203;48.428;11.974;2024-01-30T04:09:41;98172.34;;;5.02;40.79
61324;BME280;47203;48.428;11.974;2024-01-30T04:11:44;98179.19;;;5.03;40.88
61324;BME280;47203;48.428;11.974;2024-01-30T04:13:47;98174.16;;;5.01;40.80
61324;BME280;47203;48.428;11.974;2024-01-30T04:15:50;98175.97;;;5.01;41.01
61324;BME280;47203;48.428;11.974;2024-01-30T04:17:57;98182.19;;;5.00;40.95
61324;BME280;47203;48.428;11.974;2024-01-30T04:20:00;98177.78;;;5.00;40.81
61324;BME280;47203;48.428;11.974;2024-01-30T04:22:04;98176.34;;;4.98;40.76
61324;BME280;47203;48.428;11.974;2024-01-30T04:24:07;98183.38;;;4.97;40.85
61324;BME280;47203;48.428;11.974;2024-01-30T04:26:11;98185.19;;;4.97;40.82
61324;BME280;47203;48.428;11.974;2024-01-30T04:28:14;98185.19;;;4.97;40.96
61324;BME280;47203;48.428;11.974;2024-01-30T04:30:18;98191.41;;;4.96;40.90
61324;BME280;47203;48.428;11.974;2024-01-30T04:32:21;98185.38;;;4.95;40.80
61324;BME280;47203;48.428;11.974;2024-01-30T04:34:26;98189.97;;;4.93;40.79
61324;BME280;47203;48.428;11.974;2024-01-30T04:36:29;98190.16;;;4.92;40.62
61324;BME280;47203;48.428;11.974;2024-01-30T04:38:33;98179.91;;;4.90;40.89
61324;BME280;47203;48.428;11.974;2024-01-30T04:40:36;98188.72;;;4.89;40.80
61324;BME280;47203;48.428;11.974;2024-01-30T04:42:40;98188.94;;;4.87;40.81
61324;BME280;47203;48.428;11.974;2024-01-30T04:44:43;98186.69;;;4.84;40.91
61324;BME280;47203;48.428;11.974;2024-01-30T04:46:46;98194.34;;;4.86;40.82
61324;BME280;47203;48.428;11.974;2024-01-30T04:48:50;98190.31;;;4.83;40.91
61324;BME280;47203;48.428;11.974;2024-01-30T04:50:55;98193.91;;;4.82;41.10
61324;BME280;47203;48.428;11.974;2024-01-30T04:52:59;98192.94;;;4.83;40.99
61324;BME280;47203;48.428;11.974;2024-01-30T04:55:02;98196.53;;;4.82;40.89
61324;BME280;47203;48.428;11.974;2024-01-30T04:57:06;98197.53;;;4.81;40.94
61324;BME280;47203;48.428;11.974;2024-01-30T04:59:14;98198.50;;;4.80;41.06
61324;BME280;47203;48.428;11.974;2024-01-30T05:01:17;98199.53;;;4.79;41.07
61324;BME280;47203;48.428;11.974;2024-01-30T05:03:21;98198.09;;;4.77;40.91
61324;BME280;47203;48.428;11.974;2024-01-30T05:05:26;98196.66;;;4.74;40.81
61324;BME280;47203;48.428;11.974;2024-01-30T05:07:31;98194.25;;;4.72;40.88
61324;BME280;47203;48.428;11.974;2024-01-30T05:09:34;98199.47;;;4.72;40.78
61324;BME280;47203;48.428;11.974;2024-01-30T05:11:38;98197.84;;;4.71;40.80
61324;BME280;47203;48.428;11.974;2024-01-30T05:13:40;98204.19;;;4.62;40.71
61324;BME280;47203;48.428;11.974;2024-01-30T05:15:44;98193.78;;;4.62;41.14
61324;BME280;47203;48.428;11.974;2024-01-30T05:17:46;98199.78;;;4.63;40.90
61324;BME280;47203;48.428;11.974;2024-01-30T05:19:50;98195.59;;;4.62;40.91
61324;BME280;47203;48.428;11.974;2024-01-30T05:21:52;98202.59;;;4.61;40.97
61324;BME280;47203;48.428;11.974;2024-01-30T05:23:58;98195.78;;;4.60;40.90
61324;BME280;47203;48.428;11.974;2024-01-30T05:26:01;98192.34;;;4.60;40.84
61324;BME280;47203;48.428;11.974;2024-01-30T05:28:05;98198.38;;;4.60;40.91
61324;BME280;47203;48.428;11.974;2024-01-30T05:30:10;98202.16;;;4.58;40.88
61324;BME280;47203;48.428;11.974;2024-01-30T05:32:14;98201.38;;;4.57;40.89
61324;BME280;47203;48.428;11.974;2024-01-30T05:34:17;98197.34;;;4.54;40.97
61324;BME280;47203;48.428;11.974;2024-01-30T05:36:20;98196.69;;;4.52;41.01
61324;BME280;47203;48.428;11.974;2024-01-30T05:38:24;98195.91;;;4.52;40.91
61324;BME280;47203;48.428;11.974;2024-01-30T05:40:29;98198.88;;;4.49;41.01
61324;BME280;47203;48.428;11.974;2024-01-30T05:42:33;98196.09;;;4.50;40.98
61324;BME280;47203;48.428;11.974;2024-01-30T05:44:36;98202.47;;;4.48;41.07
61324;BME280;47203;48.428;11.974;2024-01-30T05:46:39;98212.13;;;4.47;41.02
61324;BME280;47203;48.428;11.974;2024-01-30T05:48:43;98208.06;;;4.45;41.11
61324;BME280;47203;48.428;11.974;2024-01-30T05:50:47;98205.47;;;4.45;40.95
61324;BME280;47203;48.428;11.974;2024-01-30T05:52:50;98207.28;;;4.44;41.04
61324;BME280;47203;48.428;11.974;2024-01-30T05:54:54;98201.69;;;4.47;41.10
61324;BME280;47203;48.428;11.974;2024-01-30T05:56:58;98207.88;;;4.46;41.12
61324;BME280;47203;48.428;11.974;2024-01-30T05:59:01;98209.50;;;4.47;41.11
61324;BME280;47203;48.428;11.974;2024-01-30T06:01:07;98208.88;;;4.45;41.27
61324;BME280;47203;48.428;11.974;2024-01-30T06:03:12;98208.06;;;4.45;41.29
61324;BME280;47203;48.428;11.974;2024-01-30T06:05:15;98214.28;;;4.44;41.27
61324;BME280;47203;48.428;11.974;2024-01-30T06:07:19;98208.44;;;4.42;41.21
61324;BME280;47203;48.428;11.974;2024-01-30T06:09:22;98200.63;;;4.42;41.12
61324;BME280;47203;48.428;11.974;2024-01-30T06:11:25;98208.66;;;4.40;41.18
61324;BME280;47203;48.428;11.974;2024-01-30T06:13:31;98205.44;;;4.38;41.07
61324;BME280;47203;48.428;11.974;2024-01-30T06:15:35;98212.44;;;4.37;41.25
61324;BME280;47203;48.428;11.974;2024-01-30T06:17:39;98211.63;;;4.37;41.23
61324;BME280;47203;48.428;11.974;2024-01-30T06:19:43;98213.25;;;4.38;41.08
61324;BME280;47203;48.428;11.974;2024-01-30T06:21:46;98217.81;;;4.36;41.07
61324;BME280;47203;48.428;11.974;2024-01-30T06:23:49;98216.00;;;4.36;41.20
61324;BME280;47203;48.428;11.974;2024-01-30T06:25:53;98216.00;;;4.36;41.11
61324;BME280;47203;48.428;11.974;2024-01-30T06:27:56;98215.22;;;4.36;41.21
61324;BME280;47203;48.428;11.974;2024-01-30T06:30:02;98214.44;;;4.35;41.28
61324;BME280;47203;48.428;11.974;2024-01-30T06:32:05;98218.81;;;4.35;41.36
61324;BME280;47203;48.428;11.974;2024-01-30T06:34:09;98217.81;;;4.36;41.17
61324;BME280;47203;48.428;11.974;2024-01-30T06:36:14;98219.44;;;4.37;41.24
61324;BME280;47203;48.428;11.974;2024-01-30T06:38:18;98221.41;;;4.35;41.25
61324;BME280;47203;48.428;11.974;2024-01-30T06:40:21;98222.44;;;4.34;41.09
61324;BME280;47203;48.428;11.974;2024-01-30T06:42:24;98231.22;;;4.33;41.18
61324;BME280;47203;48.428;11.974;2024-01-30T06:44:28;98230.44;;;4.32;41.13
61324;BME280;47203;48.428;11.974;2024-01-30T06:46:35;98230.81;;;4.29;41.24
61324;BME280;47203;48.428;11.974;2024-01-30T06:48:40;98229.00;;;4.30;41.15
61324;BME280;47203;48.428;11.974;2024-01-30T06:50:43;98233.41;;;4.29;41.09
61324;BME280;47203;48.428;11.974;2024-01-30T06:52:48;98231.81;;;4.28;41.07
61324;BME280;47203;48.428;11.974;2024-01-30T06:54:51;98231.81;;;4.28;41.47
61324;BME280;47203;48.428;11.974;2024-01-30T06:56:54;98238.78;;;4.28;41.14
61324;BME280;47203;48.428;11.974;2024-01-30T06:58:58;98239.63;;;4.28;41.13
61324;BME280;47203;48.428;11.974;2024-01-30T07:01:01;98248.41;;;4.27;41.23
61324;BME280;47203;48.428;11.974;2024-01-30T07:03:06;98249.22;;;4.28;41.29
61324;BME280;47203;48.428;11.974;2024-01-30T07:05:10;98254.44;;;4.28;41.10
61324;BME280;47203;48.428;11.974;2024-01-30T07:07:13;98246.47;;;4.29;41.08
61324;BME280;47203;48.428;11.974;2024-01-30T07:09:17;98249.06;;;4.29;41.12
61324;BME280;47203;48.428;11.974;2024-01-30T07:11:21;98248.69;;;4.32;41.31
61324;BME280;47203;48.428;11.974;2024-01-30T07:13:27;98251.91;;;4.34;41.25
61324;BME280;47203;48.428;11.974;2024-01-30T07:15:31;98259.16;;;4.39;41.31
61324;BME280;47203;48.428;11.974;2024-01-30T07:17:36;98258.59;;;4.44;41.39
61324;BME280;47203;48.428;11.974;2024-01-30T07:19:41;98257.03;;;4.49;41.67
61324;BME280;47203;48.428;11.974;2024-01-30T07:21:45;98247.47;;;4.57;41.36
61324;BME280;47203;48.428;11.974;2024-01-30T07:23:48;98250.97;;;4.64;41.42
61324;BME280;47203;48.428;11.974;2024-01-30T07:25:52;98253.63;;;4.70;41.40
61324;BME280;47203;48.428;11.974;2024-01-30T07:27:55;98258.88;;;4.77;41.37
61324;BME280;47203;48.428;11.974;2024-01-30T07:29:58;98257.91;;;4.78;41.30
61324;BME280;47203;48.428;11.974;2024-01-30T07:32:02;98260.00;;;4.89;41.33
61324;BME280;47203;48.428;11.974;2024-01-30T07:34:06;98261.09;;;5.02;41.32
61324;BME280;47203;48.428;11.974;2024-01-30T07:36:11;98268.41;;;5.13;41.46
61324;BME280;47203;48.428;11.974;2024-01-30T07:38:14;98262.84;;;5.23;41.30
61324;BME280;47203;48.428;11.974;2024-01-30T07:40:18;98257.25;;;5.33;41.46
61324;BME280;47203;48.428;11.974;2024-01-30T07:42:22;98269.78;;;5.44;41.33
61324;BME280;47203;48.428;11.974;2024-01-30T07:44:24;98259.97;;;5.53;41.30
61324;BME280;47203;48.428;11.974;2024-01-30T07:46:28;98262.25;;;5.63;41.52
61324;BME280;47203;48.428;11.974;2024-01-30T07:48:32;98260.09;;;5.73;41.39
61324;BME280;47203;48.428;11.974;2024-01-30T07:50:35;98263.75;;;5.85;41.44
61324;BME280;47203;48.428;11.974;2024-01-30T07:52:41;98264.00;;;5.97;41.42
61324;BME280;47203;48.428;11.974;2024-01-30T07:54:45;98264.88;;;6.11;41.36
61324;BME280;47203;48.428;11.974;2024-01-30T07:56:48;98271.13;;;6.23;41.34
61324;BME280;47203;48.428;11.974;2024-01-30T07:58:51;98261.72;;;6.36;41.28
61324;BME280;47203;48.428;11.974;2024-01-30T08:00:54;98263.53;;;6.49;41.28
61324;BME280;47203;48.428;11.974;2024-01-30T08:03:00;98262.56;;;6.63;41.36
61324;BME280;47203;48.428;11.974;2024-01-30T08:05:04;98255.28;;;6.78;41.40
61324;BME280;47203;48.428;11.974;2024-01-30T08:07:09;98264.56;;;6.94;41.50
61324;BME280;47203;48.428;11.974;2024-01-30T08:09:14;98264.13;;;7.11;41.36
61324;BME280;47203;48.428;11.974;2024-01-30T08:11:19;98262.09;;;7.26;41.36
61324;BME280;47203;48.428;11.974;2024-01-30T08:13:27;98269.53;;;7.43;41.28
61324;BME280;47203;48.428;11.974;2024-01-30T08:15:31;98276.13;;;7.59;41.17
61324;BME280;47203;48.428;11.974;2024-01-30T08:17:34;98274.88;;;7.75;41.06
61324;BME280;47203;48.428;11.974;2024-01-30T08:19:38;98269.97;;;7.92;41.17
61324;BME280;47203;48.428;11.974;2024-01-30T08:21:41;98267.88;;;8.07;41.01
61324;BME280;47203;48.428;11.974;2024-01-30T08:23:45;98271.81;;;8.23;41.01
61324;BME280;47203;48.428;11.974;2024-01-30T08:25:48;98269.13;;;8.36;40.97
61324;BME280;47203;48.428;11.974;2024-01-30T08:27:52;98266.03;;;8.53;40.98
61324;BME280;47203;48.428;11.974;2024-01-30T08:29:56;98278.84;;;8.68;40.98
61324;BME280;47203;48.428;11.974;2024-01-30T08:31:59;98272.50;;;8.82;40.84
61324;BME280;47203;48.428;11.974;2024-01-30T08:34:03;98275.34;;;8.99;40.88
61324;BME280;47203;48.428;11.974;2024-01-30T08:36:08;98283.94;;;9.13;40.67
61324;BME280;47203;48.428;11.974;2024-01-30T08:38:12;98279.13;;;9.29;40.66
61324;BME280;47203;48.428;11.974;2024-01-30T08:40:16;98272.16;;;9.41;40.48
61324;BME280;47203;48.428;11.974;2024-01-30T08:42:21;98267.41;;;9.50;40.45
61324;BME280;47203;48.428;11.974;2024-01-30T08:44:25;98268.06;;;9.64;40.54
61324;BME280;47203;48.428;11.974;2024-01-30T08:46:29;98269.50;;;9.78;40.45
61324;BME280;47203;48.428;11.974;2024-01-30T08:48:32;98269.50;;;9.96;40.61
61324;BME280;47203;48.428;11.974;2024-01-30T08:50:36;98269.47;;;10.15;40.39
61324;BME280;47203;48.428;11.974;2024-01-30T08:52:39;98267.63;;;10.34;40.29
61324;BME280;47203;48.428;11.974;2024-01-30T08:54:42;98268.81;;;10.50;40.20
61324;BME280;47203;48.428;11.974;2024-01-30T08:56:46;98265.88;;;10.70;40.06
61324;BME280;47203;48.428;11.974;2024-01-30T08:58:51;98273.22;;;10.92;40.01
61324;BME280;47203;48.428;11.974;2024-01-30T09:00:54;98275.31;;;11.13;39.99
61324;BME280;47203;48.428;11.974;2024-01-30T09:02:58;98270.59;;;11.39;39.72
61324;BME280;47203;48.428;11.974;2024-01-30T09:05:01;98274.22;;;11.62;39.99
61324;BME280;47203;48.428;11.974;2024-01-30T09:07:05;98272.59;;;11.84;39.91
61324;BME280;47203;48.428;11.974;2024-01-30T09:09:11;98274.94;;;12.10;39.68
61324;BME280;47203;48.428;11.974;2024-01-30T09:11:15;98277.81;;;12.37;39.54
61324;BME280;47203;48.428;11.974;2024-01-30T09:13:19;98280.50;;;12.71;39.36
61324;BME280;47203;48.428;11.974;2024-01-30T09:15:24;98283.47;;;13.08;38.65
61324;BME280;47203;48.428;11.974;2024-01-30T09:17:28;98281.34;;;13.44;38.25
61324;BME280;47203;48.428;11.974;2024-01-30T09:19:32;98278.84;;;13.77;37.92
61324;BME280;47203;48.428;11.974;2024-01-30T09:21:36;98285.03;;;14.10;37.57
61324;BME280;47203;48.428;11.974;2024-01-30T09:23:39;98291.47;;;14.41;37.45
61324;BME280;47203;48.428;11.974;2024-01-30T09:25:43;98292.56;;;14.73;36.98
61324;BME280;47203;48.428;11.974;2024-01-30T09:27:46;98294.88;;;14.96;36.77
61324;BME280;47203;48.428;11.974;2024-01-30T09:29:50;98297.41;;;15.18;36.41
61324;BME280;47203;48.428;11.974;2024-01-30T09:31:56;98294.66;;;15.41;36.05
61324;BME280;47203;48.428;11.974;2024-01-30T09:33:58;98291.59;;;15.64;35.57
61324;BME280;47203;48.428;11.974;2024-01-30T09:36:02;98288.00;;;15.91;35.18
61324;BME280;47203;48.428;11.974;2024-01-30T09:38:06;98290.75;;;16.17;34.94
61324;BME280;47203;48.428;11.974;2024-01-30T09:40:10;98292.91;;;16.30;34.71
61324;BME280;47203;48.428;11.974;2024-01-30T09:42:26;98296.63;;;16.34;34.67
61324;BME280;47203;48.428;11.974;2024-01-30T09:44:32;98293.72;;;16.46;34.55
61324;BME280;47203;48.428;11.974;2024-01-30T09:46:38;98299.59;;;16.64;34.61
61324;BME280;47203;48.428;11.974;2024-01-30T09:48:46;98288.72;;;16.81;34.45
61324;BME280;47203;48.428;11.974;2024-01-30T09:50:51;98288.19;;;16.99;34.02
61324;BME280;47203;48.428;11.974;2024-01-30T09:52:57;98290.28;;;17.13;34.00
61324;BME280;47203;48.428;11.974;2024-01-30T09:55:02;98290.31;;;17.18;34.34
61324;BME280;47203;48.428;11.974;2024-01-30T09:57:05;98293.22;;;17.21;34.07
61324;BME280;47203;48.428;11.974;2024-01-30T09:59:09;98284.97;;;17.28;33.89
61324;BME280;47203;48.428;11.974;2024-01-30T10:01:13;98280.69;;;17.42;33.90
61324;BME280;47203;48.428;11.974;2024-01-30T10:03:21;98284.59;;;17.60;33.52
61324;BME280;47203;48.428;11.974;2024-01-30T10:05:27;98284.28;;;17.77;33.13
61324;BME280;47203;48.428;11.974;2024-01-30T10:07:36;98285.31;;;17.92;33.03
61324;BME280;47203;48.428;11.974;2024-01-30T10:09:39;98278.84;;;18.03;32.92
61324;BME280;47203;48.428;11.974;2024-01-30T10:11:43;98280.69;;;18.13;32.74
61324;BME280;47203;48.428;11.974;2024-01-30T10:13:46;98272.41;;;18.20;32.78
61324;BME280;47203;48.428;11.974;2024-01-30T10:15:50;98281.44;;;18.24;32.67
61324;BME280;47203;48.428;11.974;2024-01-30T10:17:54;98273.16;;;18.25;32.61
61324;BME280;47203;48.428;11.974;2024-01-30T10:19:58;98276.56;;;18.31;32.45
61324;BME280;47203;48.428;11.974;2024-01-30T10:22:05;98271.44;;;18.40;32.29
61324;BME280;47203;48.428;11.974;2024-01-30T10:24:10;98274.31;;;18.54;32.04
61324;BME280;47203;48.428;11.974;2024-01-30T10:26:16;98264.88;;;18.66;31.96
61324;BME280;47203;48.428;11.974;2024-01-30T10:28:20;98259.75;;;18.75;31.49
61324;BME280;47203;48.428;11.974;2024-01-30T10:30:25;98259.47;;;18.77;31.11
61324;BME280;47203;48.428;11.974;2024-01-30T10:32:28;98256.81;;;18.72;30.84
61324;BME280;47203;48.428;11.974;2024-01-30T10:34:32;98257.94;;;18.65;30.55
61324;BME280;47203;48.428;11.974;2024-01-30T10:36:40;98251.25;;;18.68;30.39
61324;BME280;47203;48.428;11.974;2024-01-30T10:38:47;98255.47;;;18.74;30.53
61324;BME280;47203;48.428;11.974;2024-01-30T10:40:57;98250.31;;;18.83;30.17
61324;BME280;47203;48.428;11.974;2024-01-30T10:43:02;98240.66;;;18.92;30.00
61324;BME280;47203;48.428;11.974;2024-01-30T10:45:08;98244.84;;;19.04;30.11
61324;BME280;47203;48.428;11.974;2024-01-30T10:47:17;98249.28;;;19.13;29.93
61324;BME280;47203;48.428;11.974;2024-01-30T10:49:23;98242.53;;;19.21;30.15
61324;BME280;47203;48.428;11.974;2024-01-30T10:51:28;98240.59;;;19.27;30.23
61324;BME280;47203;48.428;11.974;2024-01-30T10:53:33;98243.13;;;19.42;29.90
61324;BME280;47203;48.428;11.974;2024-01-30T10:55:39;98230.38;;;19.58;29.59